sensor_id;sensor_type;location;lat;lon;timestamp;temperature;humidity
10848;DHT22;5477;48.806;9.154;2023-08-07T00:00:05;12.40;99.90
10848;DHT22;5477;48.806;9.154;2023-08-07T00:02:36;12.40;99.90
10848;DHT22;5477;48.806;9.154;2023-08-07T00:05:04;12.40;99.90
10848;DHT22;5477;48.806;9.154;2023-08-07T00:07:34;12.30;99.90
10848;DHT22;5477;48.806;9.154;2023-08-07T00:10:02;12.30;99.90
10848;DHT22;5477;48.806;9.154;2023-08-07T00:12:30;12.30;99.90
10848;DHT22;5477;48.806;9.154;2023-08-07T00:14:58;12.30;99.90
10848;DHT22;5477;48.806;9.154;2023-08-07T00:17:27;12.30;99.90
10848;DHT22;5477;48.806;9.154;2023-08-07T00:19:55;12.30;99.90
10848;DHT22;5477;48.806;9.154;2023-08-07T00:22:23;12.40;99.90
10848;DHT22;5477;48.806;9.154;2023-08-07T00:24:54;12.30;99.90
10848;DHT22;5477;48.806;9.154;2023-08-07T00:27:22;12.40;99.90
10848;DHT22;5477;48.806;9.154;2023-08-07T00:29:50;12.30;99.90
10848;DHT22;5477;48.806;9.154;2023-08-07T00:32:18;12.30;99.90
10848;DHT22;5477;48.806;9.154;2023-08-07T00:34:46;12.40;99.90
10848;DHT22;5477;48.806;9.154;2023-08-07T00:37:14;12.40;99.90
10848;DHT22;5477;48.806;9.154;2023-08-07T00:39:45;12.40;99.90
10848;DHT22;5477;48.806;9.154;2023-08-07T00:42:15;12.40;99.90
10848;DHT22;5477;48.806;9.154;2023-08-07T00:44:43;12.50;99.90
10848;DHT22;5477;48.806;9.154;2023-08-07T00:47:11;12.40;99.90
10848;DHT22;5477;48.806;9.154;2023-08-07T00:49:39;12.50;99.90
10848;DHT22;5477;48.806;9.154;2023-08-07T00:52:07;12.50;99.90
10848;DHT22;5477;48.806;9.154;2023-08-07T00:54:37;12.50;99.90
10848;DHT22;5477;48.806;9.154;2023-08-07T00:57:10;12.50;99.90
10848;DHT22;5477;48.806;9.154;2023-08-07T00:59:39;12.50;99.90
10848;DHT22;5477;48.806;9.154;2023-08-07T01:02:09;12.50;99.90
10848;DHT22;5477;48.806;9.154;2023-08-07T01:04:37;12.50;99.90
10848;DHT22;5477;48.806;9.154;2023-08-07T01:07:06;12.60;99.90
10848;DHT22;5477;48.806;9.154;2023-08-07T01:09:34;12.60;99.90
10848;DHT22;5477;48.806;9.154;2023-08-07T01:12:09;12.60;99.90
10848;DHT22;5477;48.806;9.154;2023-08-07T01:14:49;12.60;99.90
10848;DHT22;5477;48.806;9.154;2023-08-07T01:17:20;12.60;99.90
10848;DHT22;5477;48.806;9.154;2023-08-07T01:19:50;12.60;99.90
10848;DHT22;5477;48.806;9.154;2023-08-07T01:22:20;12.60;99.90
10848;DHT22;5477;48.806;9.154;2023-08-07T01:24:49;12.60;99.90
10848;DHT22;5477;48.806;9.154;2023-08-07T01:27:30;12.60;99.90
10848;DHT22;5477;48.806;9.154;2023-08-07T01:30:02;12.60;99.90
10848;DHT22;5477;48.806;9.154;2023-08-07T01:32:35;12.60;99.90
10848;DHT22;5477;48.806;9.154;2023-08-07T01:35:07;12.60;99.90
10848;DHT22;5477;48.806;9.154;2023-08-07T01:37:42;12.60;99.90
10848;DHT22;5477;48.806;9.154;2023-08-07T01:40:13;12.60;99.90
10848;DHT22;5477;48.806;9.154;2023-08-07T01:42:42;12.70;99.90
10848;DHT22;5477;48.806;9.154;2023-08-07T01:45:10;12.60;99.90
10848;DHT22;5477;48.806;9.154;2023-08-07T01:47:38;12.70;99.90
10848;DHT22;5477;48.806;9.154;2023-08-07T01:50:07;12.70;99.90
10848;DHT22;5477;48.806;9.154;2023-08-07T01:52:36;12.60;99.90
10848;DHT22;5477;48.806;9.154;2023-08-07T01:55:05;12.60;99.90
10848;DHT22;5477;48.806;9.154;2023-08-07T01:57:33;12.60;99.90
10848;DHT22;5477;48.806;9.154;2023-08-07T02:00:01;12.60;99.90
10848;DHT22;5477;48.806;9.154;2023-08-07T02:02:40;12.60;99.90
10848;DHT22;5477;48.806;9.154;2023-08-07T02:05:09;12.60;99.90
10848;DHT22;5477;48.806;9.154;2023-08-07T02:07:38;12.60;99.90
10848;DHT22;5477;48.806;9.154;2023-08-07T02:10:06;12.60;99.90
10848;DHT22;5477;48.806;9.154;2023-08-07T02:12:35;12.60;99.90
10848;DHT22;5477;48.806;9.154;2023-08-07T02:15:04;12.60;99.90
10848;DHT22;5477;48.806;9.154;2023-08-07T02:17:32;12.60;99.90
10848;DHT22;5477;48.806;9.154;2023-08-07T02:20:03;12.60;99.90
10848;DHT22;5477;48.806;9.154;2023-08-07T02:22:31;12.70;99.90
10848;DHT22;5477;48.806;9.154;2023-08-07T02:25:01;12.70;99.90
10848;DHT22;5477;48.806;9.154;2023-08-07T02:27:28;12.60;99.90
10848;DHT22;5477;48.806;9.154;2023-08-07T02:29:56;12.70;99.90
10848;DHT22;5477;48.806;9.154;2023-08-07T02:32:24;12.60;99.90
10848;DHT22;5477;48.806;9.154;2023-08-07T02:34:53;12.60;99.90
10848;DHT22;5477;48.806;9.154;2023-08-07T02:37:23;12.60;99.90
10848;DHT22;5477;48.806;9.154;2023-08-07T02:39:51;12.50;99.90
10848;DHT22;5477;48.806;9.154;2023-08-07T02:42:21;12.50;99.90
10848;DHT22;5477;48.806;9.154;2023-08-07T02:44:49;12.40;99.90
10848;DHT22;5477;48.806;9.154;2023-08-07T02:47:17;12.40;99.90
10848;DHT22;5477;48.806;9.154;2023-08-07T02:49:45;12.40;99.90
10848;DHT22;5477;48.806;9.154;2023-08-07T02:52:13;12.40;99.90
10848;DHT22;5477;48.806;9.154;2023-08-07T02:54:41;12.40;99.90
10848;DHT22;5477;48.806;9.154;2023-08-07T02:57:09;12.40;99.90
10848;DHT22;5477;48.806;9.154;2023-08-07T02:59:38;12.40;99.90
10848;DHT22;5477;48.806;9.154;2023-08-07T03:02:07;12.40;99.90
10848;DHT22;5477;48.806;9.154;2023-08-07T03:04:35;12.40;99.90
10848;DHT22;5477;48.806;9.154;2023-08-07T03:07:03;12.40;99.90
10848;DHT22;5477;48.806;9.154;2023-08-07T03:09:32;12.30;99.90
10848;DHT22;5477;48.806;9.154;2023-08-07T03:12:00;12.30;99.90
10848;DHT22;5477;48.806;9.154;2023-08-07T03:14:31;12.30;99.90
10848;DHT22;5477;48.806;9.154;2023-08-07T03:17:00;12.40;99.90
10848;DHT22;5477;48.806;9.154;2023-08-07T03:19:28;12.30;99.90
10848;DHT22;5477;48.806;9.154;2023-08-07T03:21:56;12.30;99.90
10848;DHT22;5477;48.806;9.154;2023-08-07T03:24:24;12.30;99.90
10848;DHT22;5477;48.806;9.154;2023-08-07T03:26:52;12.30;99.90
10848;DHT22;5477;48.806;9.154;2023-08-07T03:29:21;12.30;99.90
10848;DHT22;5477;48.806;9.154;2023-08-07T03:31:49;12.30;99.90
10848;DHT22;5477;48.806;9.154;2023-08-07T03:34:18;12.30;99.90
10848;DHT22;5477;48.806;9.154;2023-08-07T03:36:46;12.30;99.90
10848;DHT22;5477;48.806;9.154;2023-08-07T03:39:14;12.30;99.90
10848;DHT22;5477;48.806;9.154;2023-08-07T03:41:42;12.40;99.90
10848;DHT22;5477;48.806;9.154;2023-08-07T03:44:11;12.30;99.90
10848;DHT22;5477;48.806;9.154;2023-08-07T03:46:54;12.30;99.90
10848;DHT22;5477;48.806;9.154;2023-08-07T03:49:26;12.30;99.90
10848;DHT22;5477;48.806;9.154;2023-08-07T03:51:54;12.40;99.90
10848;DHT22;5477;48.806;9.154;2023-08-07T03:54:23;12.40;99.90
10848;DHT22;5477;48.806;9.154;2023-08-07T03:56:51;12.30;99.90
10848;DHT22;5477;48.806;9.154;2023-08-07T03:59:19;12.40;99.90
10848;DHT22;5477;48.806;9.154;2023-08-07T04:01:47;12.40;99.90
10848;DHT22;5477;48.806;9.154;2023-08-07T04:04:15;12.40;99.90
10848;DHT22;5477;48.806;9.154;2023-08-07T04:06:45;12.40;99.90
10848;DHT22;5477;48.806;9.154;2023-08-07T04:09:13;12.30;99.90
10848;DHT22;5477;48.806;9.154;2023-08-07T04:11:43;12.30;99.90
10848;DHT22;5477;48.806;9.154;2023-08-07T04:14:11;12.30;99.90
10848;DHT22;5477;48.806;9.154;2023-08-07T04:16:39;12.30;99.90
10848;DHT22;5477;48.806;9.154;2023-08-07T04:19:07;12.30;99.90
10848;DHT22;5477;48.806;9.154;2023-08-07T04:21:35;12.30;99.90
10848;DHT22;5477;48.806;9.154;2023-08-07T04:24:04;12.30;99.90
10848;DHT22;5477;48.806;9.154;2023-08-07T04:26:37;12.30;99.90
10848;DHT22;5477;48.806;9.154;2023-08-07T04:29:05;12.40;99.90
10848;DHT22;5477;48.806;9.154;2023-08-07T04:31:34;12.40;99.90
10848;DHT22;5477;48.806;9.154;2023-08-07T04:34:02;12.40;99.90
10848;DHT22;5477;48.806;9.154;2023-08-07T04:36:30;12.40;99.90
10848;DHT22;5477;48.806;9.154;2023-08-07T04:38:58;12.50;99.90
10848;DHT22;5477;48.806;9.154;2023-08-07T04:41:27;12.50;99.90
10848;DHT22;5477;48.806;9.154;2023-08-07T04:43:55;12.50;99.90
10848;DHT22;5477;48.806;9.154;2023-08-07T04:46:23;12.50;99.90
10848;DHT22;5477;48.806;9.154;2023-08-07T04:48:51;12.60;99.90
10848;DHT22;5477;48.806;9.154;2023-08-07T04:51:21;12.50;99.90
10848;DHT22;5477;48.806;9.154;2023-08-07T04:53:49;12.50;99.90
10848;DHT22;5477;48.806;9.154;2023-08-07T04:56:17;12.60;99.90
10848;DHT22;5477;48.806;9.154;2023-08-07T04:58:47;12.60;99.90
10848;DHT22;5477;48.806;9.154;2023-08-07T05:01:15;12.60;99.90
10848;DHT22;5477;48.806;9.154;2023-08-07T05:03:43;12.60;99.90
10848;DHT22;5477;48.806;9.154;2023-08-07T05:06:11;12.60;99.90
10848;DHT22;5477;48.806;9.154;2023-08-07T05:08:39;12.60;99.90
10848;DHT22;5477;48.806;9.154;2023-08-07T05:11:07;12.60;99.90
10848;DHT22;5477;48.806;9.154;2023-08-07T05:13:35;12.60;99.90
10848;DHT22;5477;48.806;9.154;2023-08-07T05:16:05;12.60;99.90
10848;DHT22;5477;48.806;9.154;2023-08-07T05:18:32;12.70;99.90
10848;DHT22;5477;48.806;9.154;2023-08-07T05:21:00;12.60;99.90
10848;DHT22;5477;48.806;9.154;2023-08-07T05:23:28;12.60;99.90
10848;DHT22;5477;48.806;9.154;2023-08-07T05:25:56;12.70;99.90
10848;DHT22;5477;48.806;9.154;2023-08-07T05:28:24;12.70;99.90
10848;DHT22;5477;48.806;9.154;2023-08-07T05:30:52;12.70;99.90
10848;DHT22;5477;48.806;9.154;2023-08-07T05:33:21;12.80;99.90
10848;DHT22;5477;48.806;9.154;2023-08-07T05:35:49;12.90;99.90
10848;DHT22;5477;48.806;9.154;2023-08-07T05:38:19;12.90;99.90
10848;DHT22;5477;48.806;9.154;2023-08-07T05:40:47;12.90;99.90
10848;DHT22;5477;48.806;9.154;2023-08-07T05:43:16;13.00;99.90
10848;DHT22;5477;48.806;9.154;2023-08-07T05:45:44;13.00;99.90
10848;DHT22;5477;48.806;9.154;2023-08-07T05:48:13;13.00;99.90
10848;DHT22;5477;48.806;9.154;2023-08-07T05:50:42;13.10;99.90
10848;DHT22;5477;48.806;9.154;2023-08-07T05:53:10;13.20;99.90
10848;DHT22;5477;48.806;9.154;2023-08-07T05:55:39;13.20;99.90
10848;DHT22;5477;48.806;9.154;2023-08-07T05:58:08;13.30;99.90
10848;DHT22;5477;48.806;9.154;2023-08-07T06:00:36;13.30;99.90
10848;DHT22;5477;48.806;9.154;2023-08-07T06:03:04;13.30;99.90
10848;DHT22;5477;48.806;9.154;2023-08-07T06:05:32;13.30;99.90
10848;DHT22;5477;48.806;9.154;2023-08-07T06:08:03;13.30;99.90
10848;DHT22;5477;48.806;9.154;2023-08-07T06:10:31;13.30;99.90
10848;DHT22;5477;48.806;9.154;2023-08-07T06:12:58;13.30;99.90
10848;DHT22;5477;48.806;9.154;2023-08-07T06:15:26;13.30;99.90
10848;DHT22;5477;48.806;9.154;2023-08-07T06:17:54;13.40;99.90
10848;DHT22;5477;48.806;9.154;2023-08-07T06:20:22;13.50;99.90
10848;DHT22;5477;48.806;9.154;2023-08-07T06:22:51;13.50;99.90
10848;DHT22;5477;48.806;9.154;2023-08-07T06:25:20;13.60;99.90
10848;DHT22;5477;48.806;9.154;2023-08-07T06:27:49;13.50;99.90
10848;DHT22;5477;48.806;9.154;2023-08-07T06:30:17;13.50;99.90
10848;DHT22;5477;48.806;9.154;2023-08-07T06:32:46;13.50;99.90
10848;DHT22;5477;48.806;9.154;2023-08-07T06:35:14;13.50;99.90
10848;DHT22;5477;48.806;9.154;2023-08-07T06:37:42;13.60;99.90
10848;DHT22;5477;48.806;9.154;2023-08-07T06:40:10;13.60;99.90
10848;DHT22;5477;48.806;9.154;2023-08-07T06:42:40;13.70;99.90
10848;DHT22;5477;48.806;9.154;2023-08-07T06:45:08;13.60;99.90
10848;DHT22;5477;48.806;9.154;2023-08-07T06:47:36;13.70;99.90
10848;DHT22;5477;48.806;9.154;2023-08-07T06:50:05;13.80;99.90
10848;DHT22;5477;48.806;9.154;2023-08-07T06:52:33;13.90;99.90
10848;DHT22;5477;48.806;9.154;2023-08-07T06:55:01;14.00;99.90
10848;DHT22;5477;48.806;9.154;2023-08-07T06:57:29;14.00;99.90
10848;DHT22;5477;48.806;9.154;2023-08-07T06:59:58;14.10;99.90
10848;DHT22;5477;48.806;9.154;2023-08-07T07:02:26;14.10;99.90
10848;DHT22;5477;48.806;9.154;2023-08-07T07:04:54;14.20;99.90
10848;DHT22;5477;48.806;9.154;2023-08-07T07:07:22;14.40;99.90
10848;DHT22;5477;48.806;9.154;2023-08-07T07:09:50;14.60;99.90
10848;DHT22;5477;48.806;9.154;2023-08-07T07:12:18;14.70;99.90
10848;DHT22;5477;48.806;9.154;2023-08-07T07:14:46;14.60;99.90
10848;DHT22;5477;48.806;9.154;2023-08-07T07:17:15;14.60;99.90
10848;DHT22;5477;48.806;9.154;2023-08-07T07:19:44;14.50;99.90
10848;DHT22;5477;48.806;9.154;2023-08-07T07:22:12;14.50;99.90
10848;DHT22;5477;48.806;9.154;2023-08-07T07:24:40;14.60;99.90
10848;DHT22;5477;48.806;9.154;2023-08-07T07:27:08;14.40;99.90
10848;DHT22;5477;48.806;9.154;2023-08-07T07:29:36;14.30;99.90
10848;DHT22;5477;48.806;9.154;2023-08-07T07:32:04;14.30;99.90
10848;DHT22;5477;48.806;9.154;2023-08-07T07:34:34;14.30;99.90
10848;DHT22;5477;48.806;9.154;2023-08-07T07:37:02;14.20;99.90
10848;DHT22;5477;48.806;9.154;2023-08-07T07:39:30;14.30;99.90
10848;DHT22;5477;48.806;9.154;2023-08-07T07:41:58;14.20;99.90
10848;DHT22;5477;48.806;9.154;2023-08-07T07:44:26;14.30;99.90
10848;DHT22;5477;48.806;9.154;2023-08-07T07:46:54;14.40;99.90
10848;DHT22;5477;48.806;9.154;2023-08-07T07:49:22;14.60;99.90
10848;DHT22;5477;48.806;9.154;2023-08-07T07:51:51;14.70;99.90
10848;DHT22;5477;48.806;9.154;2023-08-07T07:54:19;14.80;99.90
10848;DHT22;5477;48.806;9.154;2023-08-07T07:56:47;14.90;99.90
10848;DHT22;5477;48.806;9.154;2023-08-07T07:59:15;14.90;99.90
10848;DHT22;5477;48.806;9.154;2023-08-07T08:01:43;14.80;99.90
10848;DHT22;5477;48.806;9.154;2023-08-07T08:04:11;14.90;99.90
10848;DHT22;5477;48.806;9.154;2023-08-07T08:06:40;14.90;99.90
10848;DHT22;5477;48.806;9.154;2023-08-07T08:09:09;14.90;99.90
10848;DHT22;5477;48.806;9.154;2023-08-07T08:11:37;14.80;99.90
10848;DHT22;5477;48.806;9.154;2023-08-07T08:14:05;14.70;99.90
10848;DHT22;5477;48.806;9.154;2023-08-07T08:16:33;14.70;99.90
10848;DHT22;5477;48.806;9.154;2023-08-07T08:19:01;14.70;99.90
10848;DHT22;5477;48.806;9.154;2023-08-07T08:21:29;14.80;99.90
10848;DHT22;5477;48.806;9.154;2023-08-07T08:23:58;14.80;99.90
10848;DHT22;5477;48.806;9.154;2023-08-07T08:26:28;14.90;99.90
10848;DHT22;5477;48.806;9.154;2023-08-07T08:28:56;14.90;99.90
10848;DHT22;5477;48.806;9.154;2023-08-07T08:31:24;15.00;99.90
10848;DHT22;5477;48.806;9.154;2023-08-07T08:33:52;15.10;99.90
10848;DHT22;5477;48.806;9.154;2023-08-07T08:36:20;15.20;99.90
10848;DHT22;5477;48.806;9.154;2023-08-07T08:38:48;15.10;99.90
10848;DHT22;5477;48.806;9.154;2023-08-07T08:41:19;15.20;99.90
10848;DHT22;5477;48.806;9.154;2023-08-07T08:43:50;15.20;99.90
10848;DHT22;5477;48.806;9.154;2023-08-07T08:46:20;15.50;99.90
10848;DHT22;5477;48.806;9.154;2023-08-07T08:48:51;15.50;99.90
10848;DHT22;5477;48.806;9.154;2023-08-07T08:51:19;15.60;99.90
10848;DHT22;5477;48.806;9.154;2023-08-07T08:53:49;15.60;99.90
10848;DHT22;5477;48.806;9.154;2023-08-07T08:56:18;15.80;99.90
10848;DHT22;5477;48.806;9.154;2023-08-07T08:58:50;15.90;99.90
10848;DHT22;5477;48.806;9.154;2023-08-07T09:01:19;15.90;99.90
10848;DHT22;5477;48.806;9.154;2023-08-07T09:03:53;15.90;99.90
10848;DHT22;5477;48.806;9.154;2023-08-07T09:06:23;16.00;99.90
10848;DHT22;5477;48.806;9.154;2023-08-07T09:08:53;16.20;99.90
10848;DHT22;5477;48.806;9.154;2023-08-07T09:11:21;16.40;99.90
10848;DHT22;5477;48.806;9.154;2023-08-07T09:13:50;16.40;99.90
10848;DHT22;5477;48.806;9.154;2023-08-07T09:16:19;16.40;99.90
10848;DHT22;5477;48.806;9.154;2023-08-07T09:18:47;16.40;99.90
10848;DHT22;5477;48.806;9.154;2023-08-07T09:21:17;16.40;99.90
10848;DHT22;5477;48.806;9.154;2023-08-07T09:23:45;16.50;99.90
10848;DHT22;5477;48.806;9.154;2023-08-07T09:26:13;16.40;99.90
10848;DHT22;5477;48.806;9.154;2023-08-07T09:28:41;16.50;99.90
10848;DHT22;5477;48.806;9.154;2023-08-07T09:31:14;16.60;99.90
10848;DHT22;5477;48.806;9.154;2023-08-07T09:33:47;16.70;99.90
10848;DHT22;5477;48.806;9.154;2023-08-07T09:36:16;16.80;99.90
10848;DHT22;5477;48.806;9.154;2023-08-07T09:38:49;16.70;99.90
10848;DHT22;5477;48.806;9.154;2023-08-07T09:41:18;16.70;99.90
10848;DHT22;5477;48.806;9.154;2023-08-07T09:43:46;16.70;99.90
10848;DHT22;5477;48.806;9.154;2023-08-07T09:46:17;16.70;99.90
10848;DHT22;5477;48.806;9.154;2023-08-07T09:48:46;16.70;99.90
10848;DHT22;5477;48.806;9.154;2023-08-07T09:51:14;16.80;99.90
10848;DHT22;5477;48.806;9.154;2023-08-07T09:53:42;16.80;99.90
10848;DHT22;5477;48.806;9.154;2023-08-07T09:56:10;16.70;99.90
10848;DHT22;5477;48.806;9.154;2023-08-07T09:58:46;16.70;99.90
10848;DHT22;5477;48.806;9.154;2023-08-07T10:01:16;16.80;99.90
10848;DHT22;5477;48.806;9.154;2023-08-07T10:03:45;16.80;99.90
10848;DHT22;5477;48.806;9.154;2023-08-07T10:06:15;17.00;99.90
10848;DHT22;5477;48.806;9.154;2023-08-07T10:08:44;17.20;99.90
10848;DHT22;5477;48.806;9.154;2023-08-07T10:11:12;17.50;99.90
10848;DHT22;5477;48.806;9.154;2023-08-07T10:13:45;17.50;99.90
10848;DHT22;5477;48.806;9.154;2023-08-07T10:16:13;17.20;99.90
10848;DHT22;5477;48.806;9.154;2023-08-07T10:18:43;17.40;99.90
10848;DHT22;5477;48.806;9.154;2023-08-07T10:21:11;17.60;99.90
10848;DHT22;5477;48.806;9.154;2023-08-07T10:23:40;17.60;99.90
10848;DHT22;5477;48.806;9.154;2023-08-07T10:26:09;17.60;99.90
10848;DHT22;5477;48.806;9.154;2023-08-07T10:28:39;17.40;99.90
10848;DHT22;5477;48.806;9.154;2023-08-07T10:31:09;17.40;99.90
10848;DHT22;5477;48.806;9.154;2023-08-07T10:33:39;17.40;99.90
10848;DHT22;5477;48.806;9.154;2023-08-07T10:36:11;17.30;99.90
10848;DHT22;5477;48.806;9.154;2023-08-07T10:38:40;17.10;99.90
10848;DHT22;5477;48.806;9.154;2023-08-07T10:41:12;17.10;99.90
10848;DHT22;5477;48.806;9.154;2023-08-07T10:43:42;17.00;99.90
10848;DHT22;5477;48.806;9.154;2023-08-07T10:46:11;16.90;99.90
10848;DHT22;5477;48.806;9.154;2023-08-07T10:48:41;16.80;99.90
10848;DHT22;5477;48.806;9.154;2023-08-07T10:51:13;16.90;99.90
10848;DHT22;5477;48.806;9.154;2023-08-07T10:53:43;17.00;99.90
10848;DHT22;5477;48.806;9.154;2023-08-07T10:56:16;17.10;99.90
10848;DHT22;5477;48.806;9.154;2023-08-07T10:58:49;17.30;99.90
10848;DHT22;5477;48.806;9.154;2023-08-07T11:01:20;17.40;99.90
10848;DHT22;5477;48.806;9.154;2023-08-07T11:03:49;17.60;99.90
10848;DHT22;5477;48.806;9.154;2023-08-07T11:06:22;17.50;99.90
10848;DHT22;5477;48.806;9.154;2023-08-07T11:08:51;17.50;99.90
10848;DHT22;5477;48.806;9.154;2023-08-07T11:11:19;17.40;99.90
10848;DHT22;5477;48.806;9.154;2023-08-07T11:13:47;17.30;99.90
10848;DHT22;5477;48.806;9.154;2023-08-07T11:16:16;17.20;99.90
10848;DHT22;5477;48.806;9.154;2023-08-07T11:18:44;17.00;99.90
10848;DHT22;5477;48.806;9.154;2023-08-07T11:21:13;17.00;99.90
10848;DHT22;5477;48.806;9.154;2023-08-07T11:23:42;16.90;99.90
10848;DHT22;5477;48.806;9.154;2023-08-07T11:26:11;16.80;99.90
10848;DHT22;5477;48.806;9.154;2023-08-07T11:28:39;16.90;99.90
10848;DHT22;5477;48.806;9.154;2023-08-07T11:31:07;16.80;99.90
10848;DHT22;5477;48.806;9.154;2023-08-07T11:33:36;16.90;99.90
10848;DHT22;5477;48.806;9.154;2023-08-07T11:36:10;16.90;99.90
10848;DHT22;5477;48.806;9.154;2023-08-07T11:38:40;16.70;99.90
10848;DHT22;5477;48.806;9.154;2023-08-07T11:41:12;16.60;99.90
10848;DHT22;5477;48.806;9.154;2023-08-07T11:43:40;16.60;99.90
10848;DHT22;5477;48.806;9.154;2023-08-07T11:46:10;16.60;99.90
10848;DHT22;5477;48.806;9.154;2023-08-07T11:48:40;16.70;99.90
10848;DHT22;5477;48.806;9.154;2023-08-07T11:51:08;16.70;99.90
10848;DHT22;5477;48.806;9.154;2023-08-07T11:53:39;16.50;99.90
10848;DHT22;5477;48.806;9.154;2023-08-07T11:56:08;16.50;99.90
10848;DHT22;5477;48.806;9.154;2023-08-07T11:58:39;16.50;99.90
10848;DHT22;5477;48.806;9.154;2023-08-07T12:01:10;16.40;99.90
10848;DHT22;5477;48.806;9.154;2023-08-07T12:03:41;16.40;99.90
10848;DHT22;5477;48.806;9.154;2023-08-07T12:06:10;16.40;99.90
10848;DHT22;5477;48.806;9.154;2023-08-07T12:08:39;16.50;99.90
10848;DHT22;5477;48.806;9.154;2023-08-07T12:11:08;16.60;99.90
10848;DHT22;5477;48.806;9.154;2023-08-07T12:13:39;16.80;99.90
10848;DHT22;5477;48.806;9.154;2023-08-07T12:16:08;16.80;99.90
10848;DHT22;5477;48.806;9.154;2023-08-07T12:18:37;16.90;99.90
10848;DHT22;5477;48.806;9.154;2023-08-07T12:21:07;16.90;99.90
10848;DHT22;5477;48.806;9.154;2023-08-07T12:23:36;16.80;99.90
10848;DHT22;5477;48.806;9.154;2023-08-07T12:26:05;16.70;99.90
10848;DHT22;5477;48.806;9.154;2023-08-07T12:28:34;16.80;99.90
10848;DHT22;5477;48.806;9.154;2023-08-07T12:31:04;16.90;99.90
10848;DHT22;5477;48.806;9.154;2023-08-07T12:33:33;17.00;99.90
10848;DHT22;5477;48.806;9.154;2023-08-07T12:36:02;17.00;99.90
10848;DHT22;5477;48.806;9.154;2023-08-07T12:38:30;17.10;99.90
10848;DHT22;5477;48.806;9.154;2023-08-07T12:40:59;17.30;99.90
10848;DHT22;5477;48.806;9.154;2023-08-07T12:43:27;17.50;99.90
10848;DHT22;5477;48.806;9.154;2023-08-07T12:45:55;17.40;99.90
10848;DHT22;5477;48.806;9.154;2023-08-07T12:48:44;17.70;99.90
10848;DHT22;5477;48.806;9.154;2023-08-07T12:51:12;17.70;99.90
10848;DHT22;5477;48.806;9.154;2023-08-07T12:53:40;17.70;99.90
10848;DHT22;5477;48.806;9.154;2023-08-07T12:56:08;17.80;99.90
10848;DHT22;5477;48.806;9.154;2023-08-07T12:58:36;17.80;99.90
10848;DHT22;5477;48.806;9.154;2023-08-07T13:01:06;17.90;99.90
10848;DHT22;5477;48.806;9.154;2023-08-07T13:03:34;17.80;99.90
10848;DHT22;5477;48.806;9.154;2023-08-07T13:06:04;17.70;99.90
10848;DHT22;5477;48.806;9.154;2023-08-07T13:08:34;17.70;99.90
10848;DHT22;5477;48.806;9.154;2023-08-07T13:11:02;17.70;99.90
10848;DHT22;5477;48.806;9.154;2023-08-07T13:13:30;17.70;99.90
10848;DHT22;5477;48.806;9.154;2023-08-07T13:15:58;17.80;99.90
10848;DHT22;5477;48.806;9.154;2023-08-07T13:18:26;17.90;99.90
10848;DHT22;5477;48.806;9.154;2023-08-07T13:20:54;17.90;99.90
10848;DHT22;5477;48.806;9.154;2023-08-07T13:23:24;17.90;99.90
10848;DHT22;5477;48.806;9.154;2023-08-07T13:25:52;17.90;99.90
10848;DHT22;5477;48.806;9.154;2023-08-07T13:28:21;17.90;99.90
10848;DHT22;5477;48.806;9.154;2023-08-07T13:30:49;17.90;99.90
10848;DHT22;5477;48.806;9.154;2023-08-07T13:33:18;17.90;99.90
10848;DHT22;5477;48.806;9.154;2023-08-07T13:35:46;18.00;99.90
10848;DHT22;5477;48.806;9.154;2023-08-07T13:38:15;18.20;99.90
10848;DHT22;5477;48.806;9.154;2023-08-07T13:40:46;18.60;99.90
10848;DHT22;5477;48.806;9.154;2023-08-07T13:43:14;18.80;99.90
10848;DHT22;5477;48.806;9.154;2023-08-07T13:45:42;19.50;99.90
10848;DHT22;5477;48.806;9.154;2023-08-07T13:48:10;19.70;99.90
10848;DHT22;5477;48.806;9.154;2023-08-07T13:50:39;19.30;99.90
10848;DHT22;5477;48.806;9.154;2023-08-07T13:53:07;19.00;99.90
10848;DHT22;5477;48.806;9.154;2023-08-07T13:55:41;18.80;99.90
10848;DHT22;5477;48.806;9.154;2023-08-07T13:58:11;18.80;99.90
10848;DHT22;5477;48.806;9.154;2023-08-07T14:00:41;18.70;99.90
10848;DHT22;5477;48.806;9.154;2023-08-07T14:03:10;18.60;99.90
10848;DHT22;5477;48.806;9.154;2023-08-07T14:05:40;18.50;99.90
10848;DHT22;5477;48.806;9.154;2023-08-07T14:08:07;18.50;99.90
10848;DHT22;5477;48.806;9.154;2023-08-07T14:10:37;18.30;99.90
10848;DHT22;5477;48.806;9.154;2023-08-07T14:13:08;18.40;99.90
10848;DHT22;5477;48.806;9.154;2023-08-07T14:15:40;18.90;99.90
10848;DHT22;5477;48.806;9.154;2023-08-07T14:18:09;19.90;99.90
10848;DHT22;5477;48.806;9.154;2023-08-07T14:20:38;20.80;99.90
10848;DHT22;5477;48.806;9.154;2023-08-07T14:23:22;20.80;98.20
10848;DHT22;5477;48.806;9.154;2023-08-07T14:25:50;19.90;99.00
10848;DHT22;5477;48.806;9.154;2023-08-07T14:28:19;19.40;99.90
10848;DHT22;5477;48.806;9.154;2023-08-07T14:30:49;19.00;99.90
10848;DHT22;5477;48.806;9.154;2023-08-07T14:33:17;18.80;99.90
10848;DHT22;5477;48.806;9.154;2023-08-07T14:35:45;18.80;99.90
10848;DHT22;5477;48.806;9.154;2023-08-07T14:38:13;18.70;99.90
10848;DHT22;5477;48.806;9.154;2023-08-07T14:40:41;18.90;99.90
10848;DHT22;5477;48.806;9.154;2023-08-07T14:43:10;19.00;99.90
10848;DHT22;5477;48.806;9.154;2023-08-07T14:45:38;19.00;99.90
10848;DHT22;5477;48.806;9.154;2023-08-07T14:48:07;19.20;99.90
10848;DHT22;5477;48.806;9.154;2023-08-07T14:50:38;19.80;99.90
10848;DHT22;5477;48.806;9.154;2023-08-07T14:53:06;20.60;99.90
10848;DHT22;5477;48.806;9.154;2023-08-07T14:55:34;21.30;98.90
10848;DHT22;5477;48.806;9.154;2023-08-07T14:58:02;21.80;97.60
10848;DHT22;5477;48.806;9.154;2023-08-07T15:00:30;21.90;96.90
10848;DHT22;5477;48.806;9.154;2023-08-07T15:02:58;21.00;98.30
10848;DHT22;5477;48.806;9.154;2023-08-07T15:05:28;20.60;99.30
10848;DHT22;5477;48.806;9.154;2023-08-07T15:07:56;20.10;99.90
10848;DHT22;5477;48.806;9.154;2023-08-07T15:10:24;19.60;99.90
10848;DHT22;5477;48.806;9.154;2023-08-07T15:12:52;19.10;99.90
10848;DHT22;5477;48.806;9.154;2023-08-07T15:15:20;18.90;99.90
10848;DHT22;5477;48.806;9.154;2023-08-07T15:17:48;18.70;99.90
10848;DHT22;5477;48.806;9.154;2023-08-07T15:20:16;18.60;99.90
10848;DHT22;5477;48.806;9.154;2023-08-07T15:22:48;18.40;99.90
10848;DHT22;5477;48.806;9.154;2023-08-07T15:25:16;18.50;99.90
10848;DHT22;5477;48.806;9.154;2023-08-07T15:27:44;18.30;99.90
10848;DHT22;5477;48.806;9.154;2023-08-07T15:30:12;18.30;99.90
10848;DHT22;5477;48.806;9.154;2023-08-07T15:32:40;18.40;99.90
10848;DHT22;5477;48.806;9.154;2023-08-07T15:35:08;18.30;99.90
10848;DHT22;5477;48.806;9.154;2023-08-07T15:37:37;18.30;99.90
10848;DHT22;5477;48.806;9.154;2023-08-07T15:40:08;18.50;99.90
10848;DHT22;5477;48.806;9.154;2023-08-07T15:42:36;18.70;99.90
10848;DHT22;5477;48.806;9.154;2023-08-07T15:45:05;19.40;99.90
10848;DHT22;5477;48.806;9.154;2023-08-07T15:47:33;20.10;99.90
10848;DHT22;5477;48.806;9.154;2023-08-07T15:50:01;20.10;99.90
10848;DHT22;5477;48.806;9.154;2023-08-07T15:52:29;19.80;99.90
10848;DHT22;5477;48.806;9.154;2023-08-07T15:54:57;19.30;99.90